Daphne, Alabama
Current Conditions -  °F | °C
As of 12:55 AM on Friday 19 Dec 2014 (Local Time) from KCQF Reporting Station
Overcast Overcast  
Wind Chill: 12°   Ceiling: 5000
Heat Index: 12°   Visibility: 10mi
Dew Point:   Wind: 6mph
Humidity: 72%   Direction: 20°NNE
Pressure: 30.15"   Gusts: NA
Location:  30.6°N, 87.9°W
Report Text: KCQF 190655Z AUTO 02005KT 10SM BKN050 OVC065 12/07 A3015 RMK AO2
Loading
Personal Weather Stations






























Interactive Weather Map New forecast layout! Learn more

10-Day Weather Forecast

Advertisements
Track Severe Weather on mobile